sensor_id;sensor_type;location;lat;lon;timestamp;temperature;humidity
21678;DHT22;11000;50.360;7.582;2023-03-23T00:01:18;13.60;99.90
21678;DHT22;11000;50.360;7.582;2023-03-23T00:03:42;13.60;99.90
21678;DHT22;11000;50.360;7.582;2023-03-23T00:06:03;13.50;99.90
21678;DHT22;11000;50.360;7.582;2023-03-23T00:08:25;13.50;99.90
21678;DHT22;11000;50.360;7.582;2023-03-23T00:10:50;13.50;99.90
21678;DHT22;11000;50.360;7.582;2023-03-23T00:13:16;13.50;99.90
21678;DHT22;11000;50.360;7.582;2023-03-23T00:15:39;13.50;99.90
21678;DHT22;11000;50.360;7.582;2023-03-23T00:18:01;13.50;99.90
21678;DHT22;11000;50.360;7.582;2023-03-23T00:20:25;13.50;99.90
21678;DHT22;11000;50.360;7.582;2023-03-23T00:22:49;13.50;99.90
21678;DHT22;11000;50.360;7.582;2023-03-23T00:25:10;13.60;99.90
21678;DHT22;11000;50.360;7.582;2023-03-23T00:27:31;13.60;99.90
21678;DHT22;11000;50.360;7.582;2023-03-23T00:29:51;13.60;99.90
21678;DHT22;11000;50.360;7.582;2023-03-23T00:32:15;13.60;99.90
21678;DHT22;11000;50.360;7.582;2023-03-23T00:34:36;13.60;99.90
21678;DHT22;11000;50.360;7.582;2023-03-23T00:36:59;13.60;99.90
21678;DHT22;11000;50.360;7.582;2023-03-23T00:39:19;13.60;99.90
21678;DHT22;11000;50.360;7.582;2023-03-23T00:41:40;13.60;99.90
21678;DHT22;11000;50.360;7.582;2023-03-23T00:44:00;13.60;99.90
21678;DHT22;11000;50.360;7.582;2023-03-23T00:46:21;13.70;99.90
21678;DHT22;11000;50.360;7.582;2023-03-23T00:48:42;13.70;99.90
21678;DHT22;11000;50.360;7.582;2023-03-23T00:51:04;13.70;99.90
21678;DHT22;11000;50.360;7.582;2023-03-23T00:53:26;13.70;99.90
21678;DHT22;11000;50.360;7.582;2023-03-23T00:55:47;13.70;99.90
21678;DHT22;11000;50.360;7.582;2023-03-23T00:58:09;13.70;99.90
21678;DHT22;11000;50.360;7.582;2023-03-23T01:00:30;13.70;99.90
21678;DHT22;11000;50.360;7.582;2023-03-23T01:02:52;13.70;99.90
21678;DHT22;11000;50.360;7.582;2023-03-23T01:05:12;13.70;99.90
21678;DHT22;11000;50.360;7.582;2023-03-23T01:07:35;13.60;99.90
21678;DHT22;11000;50.360;7.582;2023-03-23T01:09:55;13.70;99.90
21678;DHT22;11000;50.360;7.582;2023-03-23T01:12:17;13.60;99.90
21678;DHT22;11000;50.360;7.582;2023-03-23T01:14:39;13.60;99.90
21678;DHT22;11000;50.360;7.582;2023-03-23T01:17:00;13.60;99.90
21678;DHT22;11000;50.360;7.582;2023-03-23T01:19:21;13.60;99.90
21678;DHT22;11000;50.360;7.582;2023-03-23T01:21:41;13.50;99.90
21678;DHT22;11000;50.360;7.582;2023-03-23T01:24:02;13.50;99.90
21678;DHT22;11000;50.360;7.582;2023-03-23T01:26:25;13.50;99.90
21678;DHT22;11000;50.360;7.582;2023-03-23T01:28:47;13.50;99.90
21678;DHT22;11000;50.360;7.582;2023-03-23T01:31:10;13.50;99.90
21678;DHT22;11000;50.360;7.582;2023-03-23T01:33:32;13.50;99.90
21678;DHT22;11000;50.360;7.582;2023-03-23T01:35:53;13.50;99.90
21678;DHT22;11000;50.360;7.582;2023-03-23T01:38:13;13.50;99.90
21678;DHT22;11000;50.360;7.582;2023-03-23T01:40:33;13.40;99.90
21678;DHT22;11000;50.360;7.582;2023-03-23T01:42:54;13.40;99.90
21678;DHT22;11000;50.360;7.582;2023-03-23T01:45:32;13.40;99.90
21678;DHT22;11000;50.360;7.582;2023-03-23T01:48:04;13.40;99.90
21678;DHT22;11000;50.360;7.582;2023-03-23T01:50:29;13.30;99.90
21678;DHT22;11000;50.360;7.582;2023-03-23T01:52:52;13.30;99.90
21678;DHT22;11000;50.360;7.582;2023-03-23T01:55:13;13.40;99.90
21678;DHT22;11000;50.360;7.582;2023-03-23T01:57:34;13.40;99.90
21678;DHT22;11000;50.360;7.582;2023-03-23T01:59:55;13.40;99.90
21678;DHT22;11000;50.360;7.582;2023-03-23T02:02:21;13.40;99.90
21678;DHT22;11000;50.360;7.582;2023-03-23T02:04:42;13.40;99.90
21678;DHT22;11000;50.360;7.582;2023-03-23T02:07:03;13.40;99.90
21678;DHT22;11000;50.360;7.582;2023-03-23T02:09:25;13.40;99.90
21678;DHT22;11000;50.360;7.582;2023-03-23T02:11:46;13.40;99.90
21678;DHT22;11000;50.360;7.582;2023-03-23T02:14:08;13.40;99.90
21678;DHT22;11000;50.360;7.582;2023-03-23T02:16:43;13.30;99.90
21678;DHT22;11000;50.360;7.582;2023-03-23T02:24:57;13.10;99.90
21678;DHT22;11000;50.360;7.582;2023-03-23T02:30:22;13.00;99.90
21678;DHT22;11000;50.360;7.582;2023-03-23T02:35:34;12.90;99.90
21678;DHT22;11000;50.360;7.582;2023-03-23T02:37:57;12.80;99.90
21678;DHT22;11000;50.360;7.582;2023-03-23T02:40:22;12.80;99.90
21678;DHT22;11000;50.360;7.582;2023-03-23T02:42:48;12.80;99.90
21678;DHT22;11000;50.360;7.582;2023-03-23T02:45:11;12.80;99.90
21678;DHT22;11000;50.360;7.582;2023-03-23T02:47:33;12.70;99.90
21678;DHT22;11000;50.360;7.582;2023-03-23T02:49:57;12.70;99.90
21678;DHT22;11000;50.360;7.582;2023-03-23T02:52:22;12.70;99.90
21678;DHT22;11000;50.360;7.582;2023-03-23T02:54:44;12.70;99.90
21678;DHT22;11000;50.360;7.582;2023-03-23T02:57:06;12.70;99.90
21678;DHT22;11000;50.360;7.582;2023-03-23T02:59:27;12.70;99.90
21678;DHT22;11000;50.360;7.582;2023-03-23T03:01:58;12.70;99.90
21678;DHT22;11000;50.360;7.582;2023-03-23T03:04:22;12.60;99.90
21678;DHT22;11000;50.360;7.582;2023-03-23T03:07:07;12.60;99.90
21678;DHT22;11000;50.360;7.582;2023-03-23T03:09:53;12.60;99.90
21678;DHT22;11000;50.360;7.582;2023-03-23T03:12:36;12.60;99.90
21678;DHT22;11000;50.360;7.582;2023-03-23T03:18:14;12.60;99.90
21678;DHT22;11000;50.360;7.582;2023-03-23T03:20:36;12.60;99.90
21678;DHT22;11000;50.360;7.582;2023-03-23T03:22:59;12.60;99.90
21678;DHT22;11000;50.360;7.582;2023-03-23T03:25:21;12.60;99.90
21678;DHT22;11000;50.360;7.582;2023-03-23T03:27:44;12.60;99.90
21678;DHT22;11000;50.360;7.582;2023-03-23T03:30:08;12.60;99.90
21678;DHT22;11000;50.360;7.582;2023-03-23T03:32:36;12.60;99.90
21678;DHT22;11000;50.360;7.582;2023-03-23T03:35:01;12.60;99.90
21678;DHT22;11000;50.360;7.582;2023-03-23T03:37:22;12.60;99.90
21678;DHT22;11000;50.360;7.582;2023-03-23T03:39:43;12.60;99.90
21678;DHT22;11000;50.360;7.582;2023-03-23T03:42:04;12.70;99.90
21678;DHT22;11000;50.360;7.582;2023-03-23T03:44:26;12.70;99.90
21678;DHT22;11000;50.360;7.582;2023-03-23T03:46:46;12.70;99.90
21678;DHT22;11000;50.360;7.582;2023-03-23T03:49:09;12.70;99.90
21678;DHT22;11000;50.360;7.582;2023-03-23T03:51:33;12.60;99.90
21678;DHT22;11000;50.360;7.582;2023-03-23T03:53:53;12.60;99.90
21678;DHT22;11000;50.360;7.582;2023-03-23T03:56:14;12.50;99.90
21678;DHT22;11000;50.360;7.582;2023-03-23T03:58:35;12.40;99.90
21678;DHT22;11000;50.360;7.582;2023-03-23T04:00:57;12.50;99.90
21678;DHT22;11000;50.360;7.582;2023-03-23T04:03:18;12.40;99.90
21678;DHT22;11000;50.360;7.582;2023-03-23T04:05:39;12.30;99.90
21678;DHT22;11000;50.360;7.582;2023-03-23T04:08:00;12.30;99.90
21678;DHT22;11000;50.360;7.582;2023-03-23T04:10:22;12.30;99.90
21678;DHT22;11000;50.360;7.582;2023-03-23T04:12:42;12.20;99.90
21678;DHT22;11000;50.360;7.582;2023-03-23T04:15:03;12.20;99.90
21678;DHT22;11000;50.360;7.582;2023-03-23T04:17:24;12.20;99.90
21678;DHT22;11000;50.360;7.582;2023-03-23T04:19:47;12.20;99.90
21678;DHT22;11000;50.360;7.582;2023-03-23T04:22:08;12.20;99.90
21678;DHT22;11000;50.360;7.582;2023-03-23T04:24:29;12.30;99.90
21678;DHT22;11000;50.360;7.582;2023-03-23T04:26:51;12.20;99.90
21678;DHT22;11000;50.360;7.582;2023-03-23T04:29:12;12.20;99.90
21678;DHT22;11000;50.360;7.582;2023-03-23T04:31:33;12.20;99.90
21678;DHT22;11000;50.360;7.582;2023-03-23T04:33:55;12.30;99.90
21678;DHT22;11000;50.360;7.582;2023-03-23T04:36:15;12.20;99.90
21678;DHT22;11000;50.360;7.582;2023-03-23T04:38:36;12.30;99.90
21678;DHT22;11000;50.360;7.582;2023-03-23T04:40:56;12.30;99.90
21678;DHT22;11000;50.360;7.582;2023-03-23T04:43:21;12.30;99.90
21678;DHT22;11000;50.360;7.582;2023-03-23T04:45:42;12.40;99.90
21678;DHT22;11000;50.360;7.582;2023-03-23T04:48:06;12.40;99.90
21678;DHT22;11000;50.360;7.582;2023-03-23T04:50:29;12.40;99.90
21678;DHT22;11000;50.360;7.582;2023-03-23T04:52:51;12.40;99.90
21678;DHT22;11000;50.360;7.582;2023-03-23T04:55:12;12.50;99.90
21678;DHT22;11000;50.360;7.582;2023-03-23T04:57:33;12.50;99.90
21678;DHT22;11000;50.360;7.582;2023-03-23T04:59:54;12.50;99.90
21678;DHT22;11000;50.360;7.582;2023-03-23T05:02:14;12.40;99.90
21678;DHT22;11000;50.360;7.582;2023-03-23T05:04:37;12.40;99.90
21678;DHT22;11000;50.360;7.582;2023-03-23T05:06:57;12.50;99.90
21678;DHT22;11000;50.360;7.582;2023-03-23T05:09:18;12.50;99.90
21678;DHT22;11000;50.360;7.582;2023-03-23T05:11:39;12.50;99.90
21678;DHT22;11000;50.360;7.582;2023-03-23T05:14:00;12.50;99.90
21678;DHT22;11000;50.360;7.582;2023-03-23T05:16:20;12.60;99.90
21678;DHT22;11000;50.360;7.582;2023-03-23T05:18:41;12.60;99.90
21678;DHT22;11000;50.360;7.582;2023-03-23T05:21:03;12.60;99.90
21678;DHT22;11000;50.360;7.582;2023-03-23T05:23:23;12.60;99.90
21678;DHT22;11000;50.360;7.582;2023-03-23T05:25:45;12.70;99.90
21678;DHT22;11000;50.360;7.582;2023-03-23T05:28:09;12.70;99.90
21678;DHT22;11000;50.360;7.582;2023-03-23T05:30:30;12.70;99.90
21678;DHT22;11000;50.360;7.582;2023-03-23T05:32:51;12.60;99.90
21678;DHT22;11000;50.360;7.582;2023-03-23T05:35:12;12.60;99.90
21678;DHT22;11000;50.360;7.582;2023-03-23T05:37:32;12.60;99.90
21678;DHT22;11000;50.360;7.582;2023-03-23T05:39:53;12.60;99.90
21678;DHT22;11000;50.360;7.582;2023-03-23T05:42:15;12.60;99.90
21678;DHT22;11000;50.360;7.582;2023-03-23T05:44:36;12.60;99.90
21678;DHT22;11000;50.360;7.582;2023-03-23T05:46:56;12.70;99.90
21678;DHT22;11000;50.360;7.582;2023-03-23T05:49:17;12.70;99.90
21678;DHT22;11000;50.360;7.582;2023-03-23T05:51:37;12.70;99.90
21678;DHT22;11000;50.360;7.582;2023-03-23T05:53:59;12.70;99.90
21678;DHT22;11000;50.360;7.582;2023-03-23T05:56:19;12.70;99.90
21678;DHT22;11000;50.360;7.582;2023-03-23T05:58:40;12.70;99.90
21678;DHT22;11000;50.360;7.582;2023-03-23T06:01:00;12.80;99.90
21678;DHT22;11000;50.360;7.582;2023-03-23T06:03:21;12.70;99.90
21678;DHT22;11000;50.360;7.582;2023-03-23T06:05:44;12.70;99.90
21678;DHT22;11000;50.360;7.582;2023-03-23T06:08:05;12.70;99.90
21678;DHT22;11000;50.360;7.582;2023-03-23T06:10:26;12.80;99.90
21678;DHT22;11000;50.360;7.582;2023-03-23T06:12:47;12.80;99.90
21678;DHT22;11000;50.360;7.582;2023-03-23T06:15:08;12.80;99.90
21678;DHT22;11000;50.360;7.582;2023-03-23T06:17:29;12.80;99.90
21678;DHT22;11000;50.360;7.582;2023-03-23T06:19:50;12.80;99.90
21678;DHT22;11000;50.360;7.582;2023-03-23T06:22:11;12.70;99.90
21678;DHT22;11000;50.360;7.582;2023-03-23T06:24:31;12.80;99.90
21678;DHT22;11000;50.360;7.582;2023-03-23T06:26:53;12.80;99.90
21678;DHT22;11000;50.360;7.582;2023-03-23T06:29:14;12.70;99.90
21678;DHT22;11000;50.360;7.582;2023-03-23T06:31:35;12.80;99.90
21678;DHT22;11000;50.360;7.582;2023-03-23T06:33:56;12.80;99.90
21678;DHT22;11000;50.360;7.582;2023-03-23T06:36:16;12.80;99.90
21678;DHT22;11000;50.360;7.582;2023-03-23T06:38:37;12.80;99.90
21678;DHT22;11000;50.360;7.582;2023-03-23T06:40:58;12.80;99.90
21678;DHT22;11000;50.360;7.582;2023-03-23T06:43:19;12.80;99.90
21678;DHT22;11000;50.360;7.582;2023-03-23T06:45:40;12.80;99.90
21678;DHT22;11000;50.360;7.582;2023-03-23T06:48:00;12.80;99.90
21678;DHT22;11000;50.360;7.582;2023-03-23T06:50:21;12.80;99.90
21678;DHT22;11000;50.360;7.582;2023-03-23T06:52:46;12.90;99.90
21678;DHT22;11000;50.360;7.582;2023-03-23T06:55:07;12.90;99.90
21678;DHT22;11000;50.360;7.582;2023-03-23T06:57:28;12.90;99.90
21678;DHT22;11000;50.360;7.582;2023-03-23T06:59:49;13.00;99.90
21678;DHT22;11000;50.360;7.582;2023-03-23T07:02:11;12.90;99.90
21678;DHT22;11000;50.360;7.582;2023-03-23T07:04:31;12.90;99.90
21678;DHT22;11000;50.360;7.582;2023-03-23T07:06:52;12.90;99.90
21678;DHT22;11000;50.360;7.582;2023-03-23T07:09:13;13.00;99.90
21678;DHT22;11000;50.360;7.582;2023-03-23T07:11:33;13.00;99.90
21678;DHT22;11000;50.360;7.582;2023-03-23T07:13:54;13.00;99.90
21678;DHT22;11000;50.360;7.582;2023-03-23T07:16:14;13.00;99.90
21678;DHT22;11000;50.360;7.582;2023-03-23T07:18:35;13.00;99.90
21678;DHT22;11000;50.360;7.582;2023-03-23T07:20:56;13.00;99.90
21678;DHT22;11000;50.360;7.582;2023-03-23T07:23:17;13.00;99.90
21678;DHT22;11000;50.360;7.582;2023-03-23T07:25:38;13.10;99.90
21678;DHT22;11000;50.360;7.582;2023-03-23T07:28:00;13.10;99.90
21678;DHT22;11000;50.360;7.582;2023-03-23T07:30:21;13.20;99.90
21678;DHT22;11000;50.360;7.582;2023-03-23T07:32:42;13.20;99.90
21678;DHT22;11000;50.360;7.582;2023-03-23T07:35:02;13.20;99.90
21678;DHT22;11000;50.360;7.582;2023-03-23T07:37:24;13.20;99.90
21678;DHT22;11000;50.360;7.582;2023-03-23T07:39:45;13.20;99.90
21678;DHT22;11000;50.360;7.582;2023-03-23T07:42:05;13.20;99.90
21678;DHT22;11000;50.360;7.582;2023-03-23T07:44:28;13.20;99.90
21678;DHT22;11000;50.360;7.582;2023-03-23T07:46:48;13.20;99.90
21678;DHT22;11000;50.360;7.582;2023-03-23T07:49:09;13.30;99.90
21678;DHT22;11000;50.360;7.582;2023-03-23T07:51:30;13.30;99.90
21678;DHT22;11000;50.360;7.582;2023-03-23T07:53:51;13.20;99.90
21678;DHT22;11000;50.360;7.582;2023-03-23T07:56:12;13.20;99.90
21678;DHT22;11000;50.360;7.582;2023-03-23T07:58:34;13.20;99.90
21678;DHT22;11000;50.360;7.582;2023-03-23T08:00:55;13.30;99.90
21678;DHT22;11000;50.360;7.582;2023-03-23T08:03:17;13.40;99.90
21678;DHT22;11000;50.360;7.582;2023-03-23T08:05:38;13.50;99.90
21678;DHT22;11000;50.360;7.582;2023-03-23T08:07:59;13.50;99.90
21678;DHT22;11000;50.360;7.582;2023-03-23T08:10:21;13.50;99.90
21678;DHT22;11000;50.360;7.582;2023-03-23T08:12:45;13.50;99.90
21678;DHT22;11000;50.360;7.582;2023-03-23T08:15:07;13.60;99.90
21678;DHT22;11000;50.360;7.582;2023-03-23T08:17:29;13.70;99.90
21678;DHT22;11000;50.360;7.582;2023-03-23T08:19:49;13.70;99.90
21678;DHT22;11000;50.360;7.582;2023-03-23T08:22:12;13.80;99.90
21678;DHT22;11000;50.360;7.582;2023-03-23T08:24:34;13.80;99.90
21678;DHT22;11000;50.360;7.582;2023-03-23T08:26:54;13.80;99.90
21678;DHT22;11000;50.360;7.582;2023-03-23T08:29:15;13.80;99.90
21678;DHT22;11000;50.360;7.582;2023-03-23T08:31:38;13.80;99.90
21678;DHT22;11000;50.360;7.582;2023-03-23T08:33:59;13.90;99.90
21678;DHT22;11000;50.360;7.582;2023-03-23T08:36:20;13.90;99.90
21678;DHT22;11000;50.360;7.582;2023-03-23T08:38:41;14.00;99.90
21678;DHT22;11000;50.360;7.582;2023-03-23T08:41:04;14.10;99.90
21678;DHT22;11000;50.360;7.582;2023-03-23T08:43:25;14.10;99.90
21678;DHT22;11000;50.360;7.582;2023-03-23T08:45:46;14.20;99.90
21678;DHT22;11000;50.360;7.582;2023-03-23T08:48:08;14.20;99.90
21678;DHT22;11000;50.360;7.582;2023-03-23T08:50:29;14.30;99.90
21678;DHT22;11000;50.360;7.582;2023-03-23T08:52:51;14.30;99.90
21678;DHT22;11000;50.360;7.582;2023-03-23T08:55:13;14.30;99.90
21678;DHT22;11000;50.360;7.582;2023-03-23T08:57:35;14.40;99.90
21678;DHT22;11000;50.360;7.582;2023-03-23T08:59:56;14.40;99.90
21678;DHT22;11000;50.360;7.582;2023-03-23T09:02:21;14.40;99.90
21678;DHT22;11000;50.360;7.582;2023-03-23T09:04:44;14.40;99.90
21678;DHT22;11000;50.360;7.582;2023-03-23T09:07:05;14.40;99.90
21678;DHT22;11000;50.360;7.582;2023-03-23T09:09:26;14.30;99.90
21678;DHT22;11000;50.360;7.582;2023-03-23T09:11:47;14.30;99.90
21678;DHT22;11000;50.360;7.582;2023-03-23T09:14:08;14.20;99.90
21678;DHT22;11000;50.360;7.582;2023-03-23T09:16:28;14.10;99.90
21678;DHT22;11000;50.360;7.582;2023-03-23T09:18:49;14.10;99.90
21678;DHT22;11000;50.360;7.582;2023-03-23T09:21:11;14.20;99.90
21678;DHT22;11000;50.360;7.582;2023-03-23T09:23:32;14.30;99.90
21678;DHT22;11000;50.360;7.582;2023-03-23T09:25:53;14.30;99.90
21678;DHT22;11000;50.360;7.582;2023-03-23T09:28:14;14.30;99.90
21678;DHT22;11000;50.360;7.582;2023-03-23T09:30:36;14.40;99.90
21678;DHT22;11000;50.360;7.582;2023-03-23T09:32:58;14.40;99.90
21678;DHT22;11000;50.360;7.582;2023-03-23T09:35:22;14.40;99.90
21678;DHT22;11000;50.360;7.582;2023-03-23T09:37:44;14.40;99.90
21678;DHT22;11000;50.360;7.582;2023-03-23T09:40:09;14.20;99.90
21678;DHT22;11000;50.360;7.582;2023-03-23T09:42:42;14.10;99.90
21678;DHT22;11000;50.360;7.582;2023-03-23T09:45:24;14.00;99.90
21678;DHT22;11000;50.360;7.582;2023-03-23T09:48:00;13.90;99.90
21678;DHT22;11000;50.360;7.582;2023-03-23T09:50:28;13.90;99.90
21678;DHT22;11000;50.360;7.582;2023-03-23T09:53:02;14.00;99.90
21678;DHT22;11000;50.360;7.582;2023-03-23T09:55:24;14.10;99.90
21678;DHT22;11000;50.360;7.582;2023-03-23T09:57:51;14.30;99.90
21678;DHT22;11000;50.360;7.582;2023-03-23T10:00:18;14.50;99.90
21678;DHT22;11000;50.360;7.582;2023-03-23T10:03:00;14.70;99.90
21678;DHT22;11000;50.360;7.582;2023-03-23T10:05:28;14.70;99.90
21678;DHT22;11000;50.360;7.582;2023-03-23T10:07:50;14.80;99.90
21678;DHT22;11000;50.360;7.582;2023-03-23T10:10:13;14.80;99.90
21678;DHT22;11000;50.360;7.582;2023-03-23T10:12:49;14.80;99.90
21678;DHT22;11000;50.360;7.582;2023-03-23T10:17:48;14.80;99.90
21678;DHT22;11000;50.360;7.582;2023-03-23T10:22:40;15.00;99.90
21678;DHT22;11000;50.360;7.582;2023-03-23T10:25:14;15.10;99.90
21678;DHT22;11000;50.360;7.582;2023-03-23T10:27:56;15.20;99.90
21678;DHT22;11000;50.360;7.582;2023-03-23T10:30:35;15.50;99.90
21678;DHT22;11000;50.360;7.582;2023-03-23T10:32:58;15.70;99.90
21678;DHT22;11000;50.360;7.582;2023-03-23T10:35:26;15.70;99.90
21678;DHT22;11000;50.360;7.582;2023-03-23T10:37:52;15.50;99.90
21678;DHT22;11000;50.360;7.582;2023-03-23T10:40:21;15.30;99.90
21678;DHT22;11000;50.360;7.582;2023-03-23T10:42:44;15.30;99.90
21678;DHT22;11000;50.360;7.582;2023-03-23T10:45:31;15.20;99.90
21678;DHT22;11000;50.360;7.582;2023-03-23T10:48:13;15.00;99.90
21678;DHT22;11000;50.360;7.582;2023-03-23T10:50:36;15.00;99.90
21678;DHT22;11000;50.360;7.582;2023-03-23T10:52:59;15.00;99.90
21678;DHT22;11000;50.360;7.582;2023-03-23T10:55:21;15.00;99.90
21678;DHT22;11000;50.360;7.582;2023-03-23T10:58:02;15.10;99.90
21678;DHT22;11000;50.360;7.582;2023-03-23T11:00:24;15.10;99.90
21678;DHT22;11000;50.360;7.582;2023-03-23T11:05:21;15.50;99.90
21678;DHT22;11000;50.360;7.582;2023-03-23T11:07:48;15.80;99.90
21678;DHT22;11000;50.360;7.582;2023-03-23T11:10:24;16.00;99.90
21678;DHT22;11000;50.360;7.582;2023-03-23T11:12:46;16.10;99.90
21678;DHT22;11000;50.360;7.582;2023-03-23T11:18:04;16.10;99.90
21678;DHT22;11000;50.360;7.582;2023-03-23T11:20:26;16.00;99.90
21678;DHT22;11000;50.360;7.582;2023-03-23T11:22:48;15.90;99.90
21678;DHT22;11000;50.360;7.582;2023-03-23T11:25:12;16.00;99.90
21678;DHT22;11000;50.360;7.582;2023-03-23T11:27:33;16.10;99.90
21678;DHT22;11000;50.360;7.582;2023-03-23T11:30:09;16.30;99.90
21678;DHT22;11000;50.360;7.582;2023-03-23T11:32:31;16.40;99.90
21678;DHT22;11000;50.360;7.582;2023-03-23T11:34:58;16.50;99.90
21678;DHT22;11000;50.360;7.582;2023-03-23T11:37:29;16.40;99.90
21678;DHT22;11000;50.360;7.582;2023-03-23T11:39:57;16.30;99.90
21678;DHT22;11000;50.360;7.582;2023-03-23T11:42:24;16.20;99.90
21678;DHT22;11000;50.360;7.582;2023-03-23T11:44:49;16.20;99.90
21678;DHT22;11000;50.360;7.582;2023-03-23T11:52:39;16.30;99.90
21678;DHT22;11000;50.360;7.582;2023-03-23T11:55:32;16.30;99.90
21678;DHT22;11000;50.360;7.582;2023-03-23T11:57:49;16.50;99.90
21678;DHT22;11000;50.360;7.582;2023-03-23T12:00:21;16.60;99.90
21678;DHT22;11000;50.360;7.582;2023-03-23T12:03:02;16.80;99.90
21678;DHT22;11000;50.360;7.582;2023-03-23T12:05:37;16.70;99.90
21678;DHT22;11000;50.360;7.582;2023-03-23T12:08:14;16.70;99.90
21678;DHT22;11000;50.360;7.582;2023-03-23T12:13:21;16.70;99.90
21678;DHT22;11000;50.360;7.582;2023-03-23T12:15:53;16.80;99.90
21678;DHT22;11000;50.360;7.582;2023-03-23T12:18:40;16.80;99.90
21678;DHT22;11000;50.360;7.582;2023-03-23T12:29:33;16.60;99.90
21678;DHT22;11000;50.360;7.582;2023-03-23T12:32:24;16.60;99.90
21678;DHT22;11000;50.360;7.582;2023-03-23T12:34:59;16.60;99.90
21678;DHT22;11000;50.360;7.582;2023-03-23T12:37:51;16.60;99.90
21678;DHT22;11000;50.360;7.582;2023-03-23T12:40:24;16.60;99.90
21678;DHT22;11000;50.360;7.582;2023-03-23T12:45:39;16.50;99.90
21678;DHT22;11000;50.360;7.582;2023-03-23T12:48:10;16.80;99.90
21678;DHT22;11000;50.360;7.582;2023-03-23T12:50:38;16.90;99.90
21678;DHT22;11000;50.360;7.582;2023-03-23T12:53:23;17.00;99.90
21678;DHT22;11000;50.360;7.582;2023-03-23T12:58:46;17.40;99.90
21678;DHT22;11000;50.360;7.582;2023-03-23T13:01:30;17.80;99.90
21678;DHT22;11000;50.360;7.582;2023-03-23T13:04:07;18.00;99.90
21678;DHT22;11000;50.360;7.582;2023-03-23T13:06:40;18.10;99.90
21678;DHT22;11000;50.360;7.582;2023-03-23T13:11:36;18.10;99.90
21678;DHT22;11000;50.360;7.582;2023-03-23T13:14:10;18.30;99.90
21678;DHT22;11000;50.360;7.582;2023-03-23T13:16:56;18.00;99.90
21678;DHT22;11000;50.360;7.582;2023-03-23T13:19:59;17.70;99.90
21678;DHT22;11000;50.360;7.582;2023-03-23T13:22:21;17.50;99.90
21678;DHT22;11000;50.360;7.582;2023-03-23T13:24:51;17.20;99.90
21678;DHT22;11000;50.360;7.582;2023-03-23T13:27:13;17.20;99.90
21678;DHT22;11000;50.360;7.582;2023-03-23T13:29:34;17.20;99.90
21678;DHT22;11000;50.360;7.582;2023-03-23T13:32:09;17.10;99.90
21678;DHT22;11000;50.360;7.582;2023-03-23T13:34:31;17.00;99.90
21678;DHT22;11000;50.360;7.582;2023-03-23T13:39:37;16.90;99.90
21678;DHT22;11000;50.360;7.582;2023-03-23T13:44:27;16.90;99.90
21678;DHT22;11000;50.360;7.582;2023-03-23T13:57:53;16.70;99.90
21678;DHT22;11000;50.360;7.582;2023-03-23T14:02:50;16.90;99.90
21678;DHT22;11000;50.360;7.582;2023-03-23T14:07:55;17.10;99.90
21678;DHT22;11000;50.360;7.582;2023-03-23T14:10:17;17.20;99.90
21678;DHT22;11000;50.360;7.582;2023-03-23T14:12:38;17.10;99.90
21678;DHT22;11000;50.360;7.582;2023-03-23T14:15:01;16.90;99.90
21678;DHT22;11000;50.360;7.582;2023-03-23T14:17:40;16.80;99.90
21678;DHT22;11000;50.360;7.582;2023-03-23T14:20:01;16.70;99.90
21678;DHT22;11000;50.360;7.582;2023-03-23T14:22:41;16.60;99.90
21678;DHT22;11000;50.360;7.582;2023-03-23T14:25:14;16.80;99.90
21678;DHT22;11000;50.360;7.582;2023-03-23T14:27:36;17.00;99.90
21678;DHT22;11000;50.360;7.582;2023-03-23T14:30:02;16.90;99.90
21678;DHT22;11000;50.360;7.582;2023-03-23T14:32:23;16.90;99.90
21678;DHT22;11000;50.360;7.582;2023-03-23T14:34:47;16.90;99.90
21678;DHT22;11000;50.360;7.582;2023-03-23T14:37:13;16.80;99.90
21678;DHT22;11000;50.360;7.582;2023-03-23T14:39:35;16.70;99.90
21678;DHT22;11000;50.360;7.582;2023-03-23T14:42:12;16.70;99.90
21678;DHT22;11000;50.360;7.582;2023-03-23T14:44:37;16.60;99.90
21678;DHT22;11000;50.360;7.582;2023-03-23T14:47:03;16.70;99.90
21678;DHT22;11000;50.360;7.582;2023-03-23T14:49:34;17.00;99.90
21678;DHT22;11000;50.360;7.582;2023-03-23T14:51:55;17.30;99.90
21678;DHT22;11000;50.360;7.582;2023-03-23T14:54:31;17.50;99.90
21678;DHT22;11000;50.360;7.582;2023-03-23T14:56:52;17.50;99.90
21678;DHT22;11000;50.360;7.582;2023-03-23T14:59:13;17.40;99.90
21678;DHT22;11000;50.360;7.582;2023-03-23T15:01:36;17.20;99.90
21678;DHT22;11000;50.360;7.582;2023-03-23T15:04:14;17.30;99.90
21678;DHT22;11000;50.360;7.582;2023-03-23T15:06:35;17.30;99.90
21678;DHT22;11000;50.360;7.582;2023-03-23T15:09:00;17.40;99.90
21678;DHT22;11000;50.360;7.582;2023-03-23T15:11:24;17.40;99.90
21678;DHT22;11000;50.360;7.582;2023-03-23T15:13:53;17.40;99.90
21678;DHT22;11000;50.360;7.582;2023-03-23T15:16:18;17.20;99.90
21678;DHT22;11000;50.360;7.582;2023-03-23T15:18:41;17.00;99.90
21678;DHT22;11000;50.360;7.582;2023-03-23T15:21:29;17.00;99.90
21678;DHT22;11000;50.360;7.582;2023-03-23T15:23:50;17.00;99.90
21678;DHT22;11000;50.360;7.582;2023-03-23T15:26:25;16.90;99.90
21678;DHT22;11000;50.360;7.582;2023-03-23T15:28:46;16.80;99.90
21678;DHT22;11000;50.360;7.582;2023-03-23T15:31:07;16.70;99.90
21678;DHT22;11000;50.360;7.582;2023-03-23T15:33:34;16.70;99.90
21678;DHT22;11000;50.360;7.582;2023-03-23T15:35:56;16.70;99.90
21678;DHT22;11000;50.360;7.582;2023-03-23T15:38:30;16.70;99.90
21678;DHT22;11000;50.360;7.582;2023-03-23T15:40:53;16.60;99.90
21678;DHT22;11000;50.360;7.582;2023-03-23T15:43:20;16.70;99.90
21678;DHT22;11000;50.360;7.582;2023-03-23T15:45:52;16.80;99.90
21678;DHT22;11000;50.360;7.582;2023-03-23T15:48:13;16.80;99.90
21678;DHT22;11000;50.360;7.582;2023-03-23T15:50:34;16.90;99.90
21678;DHT22;11000;50.360;7.582;2023-03-23T15:52:55;16.90;99.90
21678;DHT22;11000;50.360;7.582;2023-03-23T15:55:25;16.80;99.90
21678;DHT22;11000;50.360;7.582;2023-03-23T15:57:46;16.70;99.90
21678;DHT22;11000;50.360;7.582;2023-03-23T16:00:10;16.60;99.90
21678;DHT22;11000;50.360;7.582;2023-03-23T16:02:31;16.50;99.90
21678;DHT22;11000;50.360;7.582;2023-03-23T16:04:53;16.50;99.90
21678;DHT22;11000;50.360;7.582;2023-03-23T16:07:14;16.40;99.90
21678;DHT22;11000;50.360;7.582;2023-03-23T16:09:34;16.40;99.90
21678;DHT22;11000;50.360;7.582;2023-03-23T16:11:55;16.40;99.90
21678;DHT22;11000;50.360;7.582;2023-03-23T16:14:15;16.40;99.90
21678;DHT22;11000;50.360;7.582;2023-03-23T16:16:38;16.30;99.90
21678;DHT22;11000;50.360;7.582;2023-03-23T16:19:00;16.30;99.90
21678;DHT22;11000;50.360;7.582;2023-03-23T16:21:21;16.20;99.90
21678;DHT22;11000;50.360;7.582;2023-03-23T16:23:42;16.20;99.90